createdAt,value
2017-11-18T09:59:02.871Z,101007.33
2017-11-18T10:01:32.980Z,101003.91
2017-11-18T10:04:01.377Z,101005.55
2017-11-18T10:06:29.804Z,100991.77
2017-11-18T10:08:59.055Z,100984.23
2017-11-18T10:11:28.053Z,100992.05
2017-11-18T10:13:57.167Z,100970.42
2017-11-18T10:16:25.537Z,100968.77
2017-11-18T10:21:16.202Z,100961.89
2017-11-18T10:23:45.366Z,100948.95
2017-11-18T10:26:13.760Z,100931.47
2017-11-18T10:28:42.160Z,100916.98
2017-11-18T10:31:10.546Z,100921.09
2017-11-18T10:33:39.697Z,100912.63
2017-11-18T10:36:08.115Z,100922.35
2017-11-18T10:38:37.293Z,100908.39
2017-11-18T10:41:05.777Z,100902.06
2017-11-18T10:43:34.324Z,100890.72
2017-11-18T10:46:02.707Z,100889.98
2017-11-18T10:48:31.094Z,100889.05
2017-11-18T10:51:00.319Z,100885.63
2017-11-18T10:53:28.761Z,100878.22
2017-11-18T10:55:57.133Z,100868.90
2017-11-18T10:58:25.563Z,100869.52
2017-11-18T11:00:54.221Z,100874.19
2017-11-18T11:03:22.990Z,100864.47
2017-11-18T11:05:51.634Z,100868.31
2017-11-18T11:08:20.815Z,100848.03
2017-11-18T11:10:49.204Z,100853.16
2017-11-18T11:13:17.635Z,100844.95
2017-11-18T11:15:46.045Z,100837.15
2017-11-18T11:18:14.428Z,100825.77
2017-11-18T11:20:43.633Z,100825.95
2017-11-18T11:23:12.005Z,100814.60
2017-11-18T11:25:40.389Z,100813.74
2017-11-18T11:28:08.884Z,100810.42
2017-11-18T11:30:37.302Z,100816.86
2017-11-18T11:33:05.675Z,100818.48
2017-11-18T11:35:34.101Z,100803.52
2017-11-18T11:38:02.483Z,100815.45
2017-11-18T11:40:30.893Z,100797.73
2017-11-18T11:42:59.306Z,100802.70
2017-11-18T11:45:28.610Z,100796.77
2017-11-18T11:47:56.969Z,100811.34
2017-11-18T11:50:25.592Z,100806.39
2017-11-18T11:52:53.962Z,100795.75
2017-11-18T11:55:23.127Z,100812.47
2017-11-18T11:57:52.301Z,100813.58
2017-11-18T12:00:20.688Z,100816.77
2017-11-18T12:02:49.074Z,100817.77
2017-11-18T12:05:18.197Z,100815.48
2017-11-18T12:07:46.641Z,100816.37
2017-11-18T12:10:15.028Z,100814.38
2017-11-18T12:12:43.633Z,100826.23
2017-11-18T12:15:12.034Z,100832.82
2017-11-18T12:17:41.194Z,100835.72
2017-11-18T12:20:09.668Z,100838.92
2017-11-18T12:22:38.057Z,100850.80
2017-11-18T12:25:07.214Z,100862.95
2017-11-18T12:27:35.626Z,100887.97
2017-11-18T12:30:04.031Z,100897.77
2017-11-18T12:32:32.429Z,100904.00
2017-11-18T12:35:00.973Z,100913.70
2017-11-18T12:40:02.451Z,100932.22
2017-11-18T12:42:31.411Z,100928.46
2017-11-18T12:44:59.797Z,100927.54
2017-11-18T12:47:28.214Z,100922.38
2017-11-18T12:49:56.585Z,100932.59
2017-11-18T12:52:25.735Z,100927.30
2017-11-18T12:54:54.217Z,100919.05
2017-11-18T12:57:23.527Z,100896.96
2017-11-18T12:59:51.905Z,100882.30
2017-11-18T13:02:20.458Z,100879.61
2017-11-18T13:04:48.842Z,100866.89
2017-11-18T13:07:17.236Z,100880.99
2017-11-18T13:09:45.673Z,100881.05
2017-11-18T13:12:14.059Z,100878.02
2017-11-18T13:14:42.477Z,100885.84
2017-11-18T13:17:12.147Z,100879.55
2017-11-18T13:19:40.542Z,100878.53
2017-11-18T13:22:08.939Z,100866.88
2017-11-18T13:24:38.157Z,100856.33
2017-11-18T13:27:06.548Z,100829.87
2017-11-18T13:29:34.958Z,100841.65
2017-11-18T13:32:04.152Z,100851.37
2017-11-18T13:34:33.324Z,100836.95
2017-11-18T13:37:01.704Z,100845.70
2017-11-18T13:39:30.182Z,100847.47
2017-11-18T13:41:58.573Z,100841.02
2017-11-18T13:44:26.942Z,100844.28
2017-11-18T13:46:55.379Z,100848.59
2017-11-18T13:49:23.893Z,100855.03
2017-11-18T13:51:52.276Z,100856.40
2017-11-18T13:54:20.686Z,100847.67
2017-11-18T13:56:49.857Z,100862.64
2017-11-18T13:59:18.241Z,100860.81
2017-11-18T14:01:46.938Z,100855.91
2017-11-18T14:04:16.069Z,100861.64
2017-11-18T14:06:44.476Z,100850.23
2017-11-18T14:09:12.898Z,100851.89
2017-11-18T14:11:41.293Z,100857.44
2017-11-18T14:14:10.463Z,100854.47
2017-11-18T14:16:38.897Z,100869.38
2017-11-18T14:19:07.279Z,100866.86
2017-11-18T14:21:35.667Z,100860.88
2017-11-18T14:24:04.453Z,100868.02
2017-11-18T14:26:32.850Z,100855.52
2017-11-18T14:29:01.252Z,100855.27
2017-11-18T14:31:29.681Z,100851.51
2017-11-18T14:33:58.069Z,100857.18
2017-11-18T14:36:26.461Z,100862.65
2017-11-18T14:38:55.789Z,100864.00
2017-11-18T14:41:24.190Z,100861.44
2017-11-18T14:43:52.578Z,100860.23
2017-11-18T14:46:21.915Z,100863.56
2017-11-18T14:48:50.333Z,100863.98
2017-11-18T14:51:18.726Z,100857.61
2017-11-18T14:53:47.902Z,100866.04
2017-11-18T14:56:16.325Z,100853.42
2017-11-18T14:58:44.728Z,100852.21
2017-11-18T15:01:13.573Z,100857.52
2017-11-18T15:03:42.189Z,100858.61
2017-11-18T15:06:10.604Z,100862.05
2017-11-18T15:08:39.216Z,100866.09
2017-11-18T15:11:07.818Z,100866.47
2017-11-18T15:13:37.008Z,100873.49
2017-11-18T15:16:05.714Z,100865.00
2017-11-18T15:18:40.454Z,100865.51
2017-11-18T15:21:15.229Z,100865.09
2017-11-18T15:26:57.772Z,100863.20
2017-11-18T15:29:29.575Z,100869.64
2017-11-18T15:31:57.997Z,100872.57
2017-11-18T15:34:30.245Z,100876.81
2017-11-18T15:37:04.905Z,100879.58
2017-11-18T15:39:33.816Z,100876.55
2017-11-18T15:42:02.233Z,100870.30
2017-11-18T15:47:44.683Z,100868.85
2017-11-18T15:50:13.888Z,100860.21
2017-11-18T15:55:53.480Z,100857.67
2017-11-18T15:58:24.097Z,100857.48
2017-11-18T16:00:58.688Z,100858.91
2017-11-18T16:03:27.085Z,100852.58
2017-11-18T16:05:56.255Z,100865.44
2017-11-18T16:08:25.704Z,100855.17
2017-11-18T16:10:54.114Z,100850.94
2017-11-18T16:13:23.087Z,100851.15
2017-11-18T16:15:51.556Z,100853.31
2017-11-18T16:18:19.984Z,100856.33
2017-11-18T16:20:49.535Z,100850.36
2017-11-18T16:23:18.216Z,100852.03
2017-11-18T16:25:46.984Z,100840.29
2017-11-18T16:28:15.423Z,100851.40
2017-11-18T16:30:44.489Z,100851.69
2017-11-18T16:33:12.891Z,100851.01
2017-11-18T16:35:41.266Z,100849.88
2017-11-18T16:38:09.668Z,100862.60
2017-11-18T16:40:38.054Z,100853.77
2017-11-18T16:43:07.217Z,100862.72
2017-11-18T16:45:35.758Z,100864.31
2017-11-18T16:48:04.143Z,100865.45
2017-11-18T16:50:32.545Z,100864.94
2017-11-18T16:53:00.957Z,100866.37
2017-11-18T16:55:29.383Z,100866.03
2017-11-18T16:57:57.772Z,100869.80
2017-11-18T17:00:27.462Z,100869.57
2017-11-18T17:02:55.983Z,100866.42
2017-11-18T17:05:24.382Z,100881.10
2017-11-18T17:07:53.894Z,100879.03
2017-11-18T17:10:22.295Z,100893.86
2017-11-18T17:12:52.444Z,100889.16
2017-11-18T17:15:20.886Z,100888.36
2017-11-18T17:17:50.045Z,100891.47
2017-11-18T17:20:18.447Z,100882.95
2017-11-18T17:22:47.198Z,100873.33
2017-11-18T17:25:15.585Z,100870.48
2017-11-18T17:27:43.959Z,100875.20
2017-11-18T17:30:13.284Z,100870.16
2017-11-18T17:32:41.688Z,100868.69
2017-11-18T17:35:10.086Z,100873.74
2017-11-18T17:37:38.555Z,100865.94
2017-11-18T17:40:07.696Z,100872.52
2017-11-18T17:42:36.090Z,100870.97
2017-11-18T17:45:04.510Z,100862.50
2017-11-18T17:47:33.681Z,100867.00
2017-11-18T17:50:02.891Z,100865.23
2017-11-18T17:52:31.465Z,100866.39
2017-11-18T17:54:59.857Z,100865.73
2017-11-18T17:57:28.247Z,100863.80
2017-11-18T17:59:56.662Z,100863.08
2017-11-18T18:02:25.227Z,100865.79
2017-11-18T18:04:53.609Z,100859.61
2017-11-18T18:07:22.034Z,100860.73
2017-11-18T18:09:50.409Z,100859.20
2017-11-18T18:12:18.845Z,100857.77
2017-11-18T18:14:48.094Z,100858.26
2017-11-18T18:17:16.491Z,100852.38
2017-11-18T18:19:44.908Z,100865.73
2017-11-18T18:22:15.041Z,100863.73
2017-11-18T18:24:43.435Z,100863.86
2017-11-18T18:27:11.824Z,100858.35
2017-11-18T18:29:40.252Z,100848.64
2017-11-18T18:32:09.424Z,100856.22
2017-11-18T18:34:37.838Z,100852.66
2017-11-18T18:37:07.258Z,100851.16
2017-11-18T18:39:35.638Z,100852.09
2017-11-18T18:42:04.841Z,100855.59
2017-11-18T18:44:33.793Z,100859.98
2017-11-18T18:47:02.206Z,100857.63
2017-11-18T18:49:30.710Z,100869.01
2017-11-18T18:51:59.199Z,100869.31
2017-11-18T18:54:27.583Z,100861.83
2017-11-18T18:56:56.673Z,100855.39
2017-11-18T18:59:26.126Z,100858.79
2017-11-18T19:01:54.523Z,100855.69
2017-11-18T19:04:22.921Z,100856.34
2017-11-18T19:06:51.365Z,100852.01
2017-11-18T19:09:20.407Z,100848.52
2017-11-18T19:11:48.793Z,100846.20
2017-11-18T19:14:18.309Z,100860.68
2017-11-18T19:16:46.690Z,100866.33
2017-11-18T19:19:15.355Z,100866.31
2017-11-18T19:21:44.029Z,100870.34
2017-11-18T19:24:12.421Z,100862.55
2017-11-18T19:26:41.606Z,100863.90
2017-11-18T19:29:10.052Z,100845.80
2017-11-18T19:31:38.457Z,100854.77
2017-11-18T19:34:06.844Z,100845.98
2017-11-18T19:36:35.299Z,100844.21
2017-11-18T19:39:03.692Z,100838.09
2017-11-18T19:41:32.968Z,100845.38
2017-11-18T19:44:01.751Z,100843.42
2017-11-18T19:46:30.361Z,100849.79
2017-11-18T19:48:59.524Z,100844.05
2017-11-18T19:51:28.672Z,100844.28
2017-11-18T19:53:57.073Z,100843.96
2017-11-18T19:56:25.509Z,100849.80
2017-11-18T19:58:54.421Z,100847.99
2017-11-18T20:01:23.590Z,100858.55
2017-11-18T20:03:52.203Z,100862.23
2017-11-18T20:06:21.658Z,100849.08
2017-11-18T20:08:50.062Z,100857.36
2017-11-18T20:11:18.493Z,100855.03
2017-11-18T20:13:46.943Z,100849.52
2017-11-18T20:16:16.112Z,100846.19
2017-11-18T20:18:45.402Z,100844.08
2017-11-18T20:21:14.656Z,100842.02
2017-11-18T20:23:43.089Z,100846.86
2017-11-18T20:26:12.270Z,100841.74
2017-11-18T20:28:40.743Z,100850.83
2017-11-18T20:31:09.984Z,100846.31
2017-11-18T20:33:39.165Z,100850.53
2017-11-18T20:36:07.584Z,100848.48
2017-11-18T20:38:35.978Z,100847.15
2017-11-18T20:41:04.385Z,100845.86
2017-11-18T20:43:32.827Z,100850.37
2017-11-18T20:46:02.002Z,100852.79
2017-11-18T20:48:30.681Z,100854.92
2017-11-18T20:50:59.165Z,100850.95
2017-11-18T20:53:27.591Z,100857.22
2017-11-18T20:55:56.032Z,100865.97
2017-11-18T20:58:25.247Z,100854.50
2017-11-18T21:00:54.453Z,100856.35
2017-11-18T21:03:22.884Z,100845.98
2017-11-18T21:05:51.323Z,100846.20
2017-11-18T21:08:19.728Z,100842.95
2017-11-18T21:10:48.182Z,100843.87
2017-11-18T21:13:16.855Z,100839.21
2017-11-18T21:15:46.006Z,100845.67
2017-11-18T21:18:14.420Z,100848.83
2017-11-18T21:20:42.850Z,100842.82
2017-11-18T21:23:11.302Z,100845.98
2017-11-18T21:25:40.429Z,100846.30
2017-11-18T21:28:08.882Z,100839.38
2017-11-18T21:30:38.210Z,100834.02
2017-11-18T21:33:06.620Z,100839.30
2017-11-18T21:35:35.096Z,100841.36
2017-11-18T21:38:03.511Z,100834.71
2017-11-18T21:40:33.612Z,100824.13
2017-11-18T21:43:02.127Z,100831.84
2017-11-18T21:45:30.560Z,100834.03
2017-11-18T21:47:58.967Z,100828.64
2017-11-18T21:50:27.404Z,100830.03
2017-11-18T21:52:57.749Z,100831.93
2017-11-18T21:55:26.151Z,100830.00
2017-11-18T21:57:54.769Z,100822.30
2017-11-18T22:00:23.224Z,100826.40
2017-11-18T22:02:52.280Z,100819.84
2017-11-18T22:05:21.191Z,100822.52
2017-11-18T22:07:49.646Z,100815.63
2017-11-18T22:10:18.124Z,100816.73
2017-11-18T22:12:46.574Z,100817.55
2017-11-18T22:15:14.973Z,100827.20
2017-11-18T22:17:43.403Z,100833.77
2017-11-18T22:20:12.365Z,100836.66
2017-11-18T22:22:40.801Z,100828.43
2017-11-18T22:25:09.227Z,100832.02
2017-11-18T22:27:37.646Z,100830.50
2017-11-18T22:30:06.862Z,100811.59
2017-11-18T22:32:35.292Z,100811.73
2017-11-18T22:35:03.715Z,100810.99
2017-11-18T22:37:32.937Z,100813.30
2017-11-18T22:40:01.365Z,100819.86
2017-11-18T22:42:30.336Z,100814.62
2017-11-18T22:44:58.714Z,100807.77
2017-11-18T22:47:27.163Z,100810.27
2017-11-18T22:49:55.598Z,100812.02
2017-11-18T22:52:23.974Z,100803.06
2017-11-18T22:54:52.375Z,100797.59
2017-11-18T22:57:21.578Z,100799.21
2017-11-18T22:59:50.771Z,100790.69
2017-11-18T23:02:19.154Z,100776.91
2017-11-18T23:04:47.768Z,100782.56
2017-11-18T23:07:16.964Z,100773.61
2017-11-18T23:09:46.003Z,100770.26
2017-11-18T23:12:14.417Z,100764.97
2017-11-18T23:14:44.359Z,100763.34
2017-11-18T23:17:12.724Z,100752.84
2017-11-18T23:19:41.158Z,100751.31
2017-11-18T23:22:09.535Z,100744.06
2017-11-18T23:24:37.942Z,100750.11
2017-11-18T23:27:06.420Z,100740.16
2017-11-18T23:29:34.844Z,100739.52
2017-11-18T23:32:03.229Z,100729.72
2017-11-18T23:34:31.669Z,100720.95
2017-11-18T23:37:00.100Z,100714.23
2017-11-18T23:39:28.479Z,100711.20
2017-11-18T23:41:57.157Z,100713.69
2017-11-18T23:44:25.538Z,100711.85
2017-11-18T23:46:53.916Z,100705.42
2017-11-18T23:49:22.492Z,100703.03
2017-11-18T23:51:51.580Z,100711.10
2017-11-18T23:54:20.001Z,100714.86
2017-11-18T23:56:48.426Z,100704.69
2017-11-18T23:59:17.633Z,100694.73
